createdAt,value
2022-07-25T00:03:19.356Z,50.06
2022-07-25T00:08:22.536Z,50.26
2022-07-25T00:13:25.401Z,50.37
2022-07-25T00:18:28.361Z,50.66
2022-07-25T00:23:31.477Z,50.86
2022-07-25T00:28:34.564Z,51.09
2022-07-25T00:33:37.499Z,51.17
2022-07-25T00:38:40.423Z,51.30
2022-07-25T00:43:46.640Z,51.39
2022-07-25T00:48:49.971Z,51.43
2022-07-25T00:53:52.967Z,51.48
2022-07-25T00:58:55.899Z,51.56
2022-07-25T01:03:59.187Z,51.87
2022-07-25T01:09:02.259Z,52.13
2022-07-25T01:14:05.571Z,52.19
2022-07-25T01:19:08.931Z,52.21
2022-07-25T01:24:13.311Z,52.11
2022-07-25T01:29:16.215Z,52.33
2022-07-25T01:34:19.693Z,52.49
2022-07-25T01:39:22.571Z,52.61
2022-07-25T01:44:25.438Z,52.74
2022-07-25T01:49:28.474Z,52.89
2022-07-25T01:54:32.795Z,53.02
2022-07-25T01:59:40.349Z,52.96
2022-07-25T02:04:43.244Z,53.00
2022-07-25T02:09:46.161Z,53.30
2022-07-25T02:14:49.099Z,53.19
2022-07-25T02:19:52.124Z,53.44
2022-07-25T02:24:55.170Z,53.59
2022-07-25T02:29:58.558Z,53.72
2022-07-25T02:35:01.723Z,53.86
2022-07-25T02:40:05.903Z,53.83
2022-07-25T02:45:09.336Z,53.96
2022-07-25T02:50:15.034Z,53.88
2022-07-25T02:55:18.075Z,53.89
2022-07-25T03:00:20.963Z,54.07
2022-07-25T03:05:24.138Z,54.09
2022-07-25T03:10:27.077Z,54.25
2022-07-25T03:15:30.043Z,54.22
2022-07-25T03:20:32.998Z,54.19
2022-07-25T03:25:35.906Z,54.37
2022-07-25T03:30:38.799Z,54.71
2022-07-25T03:35:41.912Z,54.51
2022-07-25T03:40:44.895Z,54.74
2022-07-25T03:45:47.773Z,54.58
2022-07-25T03:50:50.698Z,54.58
2022-07-25T03:55:53.526Z,54.54
2022-07-25T04:00:56.611Z,54.64
2022-07-25T04:06:01.599Z,54.75
2022-07-25T04:11:04.793Z,54.79
2022-07-25T04:16:11.644Z,54.97
2022-07-25T04:21:17.618Z,54.84
2022-07-25T04:26:20.601Z,55.07
2022-07-25T04:31:25.072Z,55.02
2022-07-25T04:36:28.746Z,55.04
2022-07-25T04:41:31.678Z,54.96
2022-07-25T04:46:34.544Z,54.94
2022-07-25T04:51:37.521Z,54.78
2022-07-25T04:56:40.671Z,54.88
2022-07-25T05:01:43.678Z,54.83
2022-07-25T05:06:46.667Z,54.88
2022-07-25T05:11:54.205Z,54.85
2022-07-25T05:17:00.046Z,54.75
2022-07-25T05:22:03.854Z,55.30
2022-07-25T05:27:06.717Z,56.53
2022-07-25T05:32:09.609Z,56.14
2022-07-25T05:37:12.567Z,55.36
2022-07-25T05:42:15.380Z,53.50
2022-07-25T05:47:18.242Z,53.00
2022-07-25T05:52:21.235Z,53.70
2022-07-25T05:57:24.117Z,53.27
2022-07-25T06:02:27.178Z,52.68
2022-07-25T06:07:30.305Z,52.08
2022-07-25T06:12:36.483Z,50.89
2022-07-25T06:17:39.929Z,50.42
2022-07-25T06:22:43.224Z,50.92
2022-07-25T06:27:46.069Z,51.43
2022-07-25T06:32:49.923Z,51.15
2022-07-25T06:37:53.167Z,51.11
2022-07-25T06:42:56.059Z,50.37
2022-07-25T06:47:58.983Z,49.66
2022-07-25T06:53:02.645Z,49.44
2022-07-25T06:58:05.778Z,48.99
2022-07-25T07:03:08.793Z,48.95
2022-07-25T07:08:11.799Z,49.54
2022-07-25T07:13:23.594Z,49.88
2022-07-25T07:18:27.201Z,49.68
2022-07-25T07:23:30.249Z,49.19
2022-07-25T07:28:35.499Z,49.06
2022-07-25T07:33:38.473Z,48.88
2022-07-25T07:38:42.114Z,48.51
2022-07-25T07:43:45.679Z,48.21
2022-07-25T07:48:48.571Z,48.06
2022-07-25T07:54:12.270Z,47.89
2022-07-25T07:59:16.019Z,47.69
2022-07-25T08:04:19.005Z,47.55
2022-07-25T08:09:21.940Z,47.43
2022-07-25T08:14:24.908Z,47.11
2022-07-25T08:19:27.749Z,46.95
2022-07-25T08:24:30.610Z,46.64
2022-07-25T08:29:33.557Z,46.52
2022-07-25T08:34:36.408Z,46.24
2022-07-25T08:39:41.620Z,45.72
2022-07-25T08:44:53.922Z,44.91
2022-07-25T08:50:00.915Z,44.70
2022-07-25T08:55:10.860Z,44.23
2022-07-25T09:00:17.888Z,44.26
2022-07-25T09:05:24.766Z,43.80
2022-07-25T09:10:29.145Z,43.05
2022-07-25T09:15:37.198Z,43.02
2022-07-25T09:21:00.191Z,42.60
2022-07-25T09:26:07.693Z,42.44
2022-07-25T09:31:11.200Z,41.89
2022-07-25T09:36:14.869Z,41.78
2022-07-25T09:41:17.878Z,41.49
2022-07-25T09:46:30.938Z,41.25
2022-07-25T09:51:34.107Z,41.08
2022-07-25T09:56:37.062Z,40.98
2022-07-25T10:01:51.524Z,40.67
2022-07-25T10:07:09.972Z,40.30
2022-07-25T10:12:18.593Z,40.00
2022-07-25T10:17:22.071Z,39.49
2022-07-25T10:22:56.417Z,39.25
2022-07-25T10:28:10.237Z,39.04
2022-07-25T10:33:19.257Z,38.79
2022-07-25T10:38:28.345Z,38.73
2022-07-25T10:43:38.045Z,38.25
2022-07-25T10:48:42.358Z,37.62
2022-07-25T10:53:49.687Z,37.13
2022-07-25T10:58:52.531Z,36.75
2022-07-25T11:03:58.481Z,36.33
2022-07-25T11:09:02.485Z,36.22
2022-07-25T11:14:06.768Z,36.03
2022-07-25T11:19:22.999Z,36.19
2022-07-25T11:24:35.846Z,35.99
2022-07-25T11:29:39.350Z,35.48
2022-07-25T11:34:47.027Z,35.30
2022-07-25T11:39:50.021Z,34.65
2022-07-25T11:44:55.144Z,34.33
2022-07-25T11:50:03.628Z,33.64
2022-07-25T11:55:12.296Z,33.33
2022-07-25T12:00:17.414Z,33.36
2022-07-25T12:05:23.008Z,33.31
2022-07-25T12:10:35.216Z,32.91
2022-07-25T12:15:41.601Z,32.96
2022-07-25T12:20:44.636Z,32.93
2022-07-25T12:25:47.579Z,32.89
2022-07-25T12:30:56.300Z,32.48
2022-07-25T12:36:04.046Z,32.30
2022-07-25T12:41:10.897Z,31.84
2022-07-25T12:46:16.973Z,31.81
2022-07-25T12:51:20.496Z,31.35
2022-07-25T12:56:23.390Z,31.23
2022-07-25T13:01:26.366Z,31.17
2022-07-25T13:06:29.670Z,30.49
2022-07-25T13:11:32.535Z,30.43
2022-07-25T13:16:38.004Z,30.42
2022-07-25T13:21:41.304Z,30.37
2022-07-25T13:26:44.734Z,29.91
2022-07-25T13:31:47.872Z,28.89
2022-07-25T13:36:50.712Z,28.54
2022-07-25T13:41:53.933Z,28.36
2022-07-25T13:46:58.757Z,28.04
2022-07-25T13:52:01.709Z,27.52
2022-07-25T13:57:04.928Z,27.36
2022-07-25T14:02:07.871Z,27.29
2022-07-25T14:07:10.880Z,26.98
2022-07-25T14:12:13.767Z,26.70
2022-07-25T14:17:17.078Z,26.54
2022-07-25T14:22:20.098Z,26.70
2022-07-25T14:27:23.292Z,26.44
2022-07-25T14:32:26.465Z,26.32
2022-07-25T14:37:31.627Z,26.37
2022-07-25T14:42:34.512Z,26.01
2022-07-25T14:47:40.229Z,25.87
2022-07-25T14:52:43.287Z,26.24
2022-07-25T14:57:46.125Z,26.07
2022-07-25T15:02:49.104Z,26.35
2022-07-25T15:07:52.066Z,26.75
2022-07-25T15:13:14.014Z,26.94
2022-07-25T15:18:17.967Z,27.20
2022-07-25T15:23:23.366Z,27.55
2022-07-25T15:28:26.420Z,27.95
2022-07-25T15:33:29.357Z,28.42
2022-07-25T15:38:32.445Z,28.42
2022-07-25T15:43:35.308Z,28.69
2022-07-25T15:48:38.786Z,29.00
2022-07-25T15:53:41.845Z,29.10
2022-07-25T15:58:47.271Z,29.30
2022-07-25T16:03:50.274Z,29.37
2022-07-25T16:08:53.245Z,29.41
2022-07-25T16:14:02.058Z,29.66
2022-07-25T16:19:05.220Z,30.02
2022-07-25T16:24:10.744Z,30.16
2022-07-25T16:29:13.814Z,30.32
2022-07-25T16:34:16.685Z,30.69
2022-07-25T16:39:21.842Z,31.01
2022-07-25T16:44:24.768Z,31.96
2022-07-25T16:49:27.988Z,32.05
2022-07-25T16:54:30.875Z,31.84
2022-07-25T16:59:33.745Z,31.83
2022-07-25T17:04:37.766Z,31.59
2022-07-25T17:09:40.995Z,32.12
2022-07-25T17:14:44.682Z,32.12
2022-07-25T17:19:47.837Z,32.22
2022-07-25T17:24:50.911Z,32.51
2022-07-25T17:29:53.815Z,32.58
2022-07-25T17:35:01.876Z,32.89
2022-07-25T17:40:07.032Z,33.25
2022-07-25T17:45:10.786Z,33.37
2022-07-25T17:50:14.440Z,33.60
2022-07-25T17:55:17.592Z,33.87
2022-07-25T18:00:22.707Z,34.23
2022-07-25T18:05:25.808Z,34.34
2022-07-25T18:10:28.814Z,34.46
2022-07-25T18:15:31.815Z,34.52
2022-07-25T18:20:35.272Z,34.72
2022-07-25T18:25:38.260Z,34.82
2022-07-25T18:30:41.247Z,34.90
2022-07-25T18:35:44.181Z,34.99
2022-07-25T18:40:47.116Z,35.00
2022-07-25T18:45:50.869Z,35.13
2022-07-25T18:50:54.308Z,35.34
2022-07-25T18:55:57.189Z,35.43
2022-07-25T19:01:00.115Z,35.66
2022-07-25T19:06:04.935Z,36.18
2022-07-25T19:11:08.625Z,36.53
2022-07-25T19:16:12.096Z,36.74
2022-07-25T19:21:15.591Z,37.12
2022-07-25T19:26:20.136Z,37.58
2022-07-25T19:31:23.263Z,37.73
2022-07-25T19:36:26.227Z,37.84
2022-07-25T19:41:30.638Z,38.12
2022-07-25T19:46:34.351Z,38.26
2022-07-25T19:51:38.042Z,38.68
2022-07-25T19:56:40.969Z,38.67
2022-07-25T20:01:43.945Z,38.81
2022-07-25T20:06:46.886Z,38.98
2022-07-25T20:11:49.913Z,39.12
2022-07-25T20:16:52.948Z,39.45
2022-07-25T20:21:57.105Z,39.53
2022-07-25T20:27:00.663Z,39.53
2022-07-25T20:32:03.930Z,39.84
2022-07-25T20:37:06.896Z,39.93
2022-07-25T20:42:09.783Z,40.16
2022-07-25T20:47:14.899Z,40.28
2022-07-25T20:52:18.415Z,40.46
2022-07-25T20:57:22.569Z,40.66
2022-07-25T21:02:25.636Z,40.73
2022-07-25T21:07:28.496Z,40.81
2022-07-25T21:12:33.013Z,40.97
2022-07-25T21:17:36.177Z,41.09
2022-07-25T21:22:40.469Z,41.22
2022-07-25T21:27:43.879Z,41.25
2022-07-25T21:32:46.845Z,41.44
2022-07-25T21:37:49.811Z,41.58
2022-07-25T21:42:52.889Z,41.67
2022-07-25T21:47:55.839Z,41.77
2022-07-25T21:53:01.388Z,41.91
2022-07-25T21:58:05.522Z,42.08
2022-07-25T22:03:08.415Z,42.15
2022-07-25T22:08:11.423Z,42.28
2022-07-25T22:13:14.312Z,42.52
2022-07-25T22:18:17.191Z,42.54
2022-07-25T22:23:20.250Z,42.79
2022-07-25T22:28:23.278Z,42.96
2022-07-25T22:33:28.687Z,43.32
2022-07-25T22:38:31.700Z,43.49
2022-07-25T22:43:57.926Z,43.53
2022-07-25T22:48:58.670Z,43.83
2022-07-25T22:54:02.933Z,44.09
2022-07-25T22:59:06.180Z,44.29
2022-07-25T23:04:09.568Z,44.45
2022-07-25T23:09:13.680Z,44.76
2022-07-25T23:14:17.041Z,44.80
2022-07-25T23:19:19.984Z,44.98
2022-07-25T23:24:25.384Z,45.08
2022-07-25T23:29:28.375Z,45.22
2022-07-25T23:34:31.506Z,45.52
2022-07-25T23:39:34.441Z,45.74
2022-07-25T23:44:38.004Z,45.86
2022-07-25T23:49:41.619Z,45.89
2022-07-25T23:54:44.661Z,46.04
2022-07-25T23:59:47.573Z,46.07
